Atlantic, PA (16111)

6:16 AM EDT on August 27, 2014 (GMT -0400)
Port Meadville | Change Station
CLOSE
Current Station
Airport
Location: Meadville,
Elevation: 1401 ft
Nearby Weather Stations

Elev 1401 ft 41.63 °N, 80.21 °W | Updated 14 minutes ago

Mostly Cloudy
Mostly Cloudy
69 °F
Feels Like 69 °F
N
0
Wind Variable Wind from North

Today
High -- | Low -- °F
--% Chance of Precip.
Yesterday
High -- | Low -- °F
Precip. -- in
6:42 AM 8:02 PM
Waxing Crescent, 3% visible
Pressure 30.10 in
Visibility 10.0 miles
Clouds Few 700 ft
Scattered Clouds 2300 ft
Mostly Cloudy 3100 ft
Dew Point 66 °F
Humidity 90%
Rainfall 0.00 in
Snow Depth Not available.
UV 0 out of 12
Pollen 10.20 out of 12
Air Quality Not available.
Flu Activity Not available.
SPECI KGKJ 271002Z AUTO 00000KT 10SM FEW007 SCT023 BKN031 21/19 A3010 RMK AO2 T02060189 TSNO

More Conditions Fewer Conditions

Pressure 30.10 in
Visibility 10.0 miles
Clouds Few 700 ft
Scattered Clouds 2300 ft
Mostly Cloudy 3100 ft
Dew Point 66 °F
Humidity 90%
Rainfall 0.00 in
Snow Depth Not available.
UV 0 out of 12
Pollen 10.20 out of 12
Air Quality Not available.
Flu Activity Not available.
SPECI KGKJ 271002Z AUTO 00000KT 10SM FEW007 SCT023 BKN031 21/19 A3010 RMK AO2 T02060189 TSNO

More Conditions Fewer Conditions

10-Day Weather Forecast

Almanac

Astronomy

Aug. 27, 2014 Rise Set
Actual Time 6:42 AM EDT 8:02 PM EDT
Civil Twilight 6:13 AM EDT 8:31 PM EDT
Nautical Twilight 5:38 AM EDT 9:05 PM EDT
Astronomical Twilight 5:02 AM EDT 9:41 PM EDT
Moon 8:38 AM EDT 8:51 PM EDT
Length of Visible Light 14h 17m
Length of Day
13h 20m
Tomorrow will be 2m 37s shorter.
Waxing Crescent, 3% of the Moon is Illuminated
Today
Waxing Crescent
Sep 2
First Quarter
Sep 8
Full
Sep 15
Last Quarter
Sep 24
New

Today's Extremes

State Highs State Lows

Community

WunderPhotos

Upload Photos

1,747,661 photos uploaded!

Nearby

Snow Depth

Station Depth Elevation
No new snow has been reported.

Earthquake Activity

City Distance Mag. Time & Date
No recent earthquake activity has been reported nearby.
Minimum magnitude displayed is 2.5.

Coastal Water Temperatures

Place Temperature
No Stations Reporting

Nearby Weather Stations